createdAt,value
2022-09-28T00:00:19.183Z,1.53
2022-09-28T00:02:45.854Z,1.60
2022-09-28T00:05:12.731Z,1.90
2022-09-28T00:07:39.237Z,1.53
2022-09-28T00:10:06.003Z,1.70
2022-09-28T00:12:32.476Z,1.70
2022-09-28T00:14:58.932Z,1.70
2022-09-28T00:17:26.493Z,1.70
2022-09-28T00:19:52.963Z,1.60
2022-09-28T00:24:59.878Z,1.37
2022-09-28T00:27:26.410Z,1.63
2022-09-28T00:29:52.928Z,1.60
2022-09-28T00:32:21.500Z,1.53
2022-09-28T00:34:48.930Z,1.50
2022-09-28T00:37:15.434Z,1.60
2022-09-28T00:39:41.906Z,1.77
2022-09-28T00:42:18.244Z,1.60
2022-09-28T00:44:47.276Z,1.60
2022-09-28T00:47:35.397Z,1.50
2022-09-28T00:50:15.025Z,1.50
2022-09-28T00:52:41.388Z,1.37
2022-09-28T00:55:09.998Z,1.37
2022-09-28T00:57:37.263Z,1.63
2022-09-28T01:00:04.300Z,1.40
2022-09-28T01:02:30.820Z,1.50
2022-09-28T01:04:57.907Z,1.50
2022-09-28T01:07:24.451Z,1.50
2022-09-28T01:09:50.943Z,1.70
2022-09-28T01:12:17.802Z,1.50
2022-09-28T01:14:44.630Z,1.43
2022-09-28T01:17:14.820Z,1.50
2022-09-28T01:19:56.365Z,1.43
2022-09-28T01:22:34.916Z,1.50
2022-09-28T01:25:07.342Z,1.60
2022-09-28T01:27:37.329Z,1.33
2022-09-28T01:30:05.892Z,1.43
2022-09-28T01:32:36.867Z,1.43
2022-09-28T01:35:22.649Z,1.43
2022-09-28T01:37:54.496Z,1.43
2022-09-28T01:40:22.477Z,1.30
2022-09-28T01:42:51.538Z,1.03
2022-09-28T01:45:22.029Z,1.60
2022-09-28T01:47:48.540Z,1.40
2022-09-28T01:50:18.223Z,1.50
2022-09-28T01:52:46.065Z,1.40
2022-09-28T01:55:23.486Z,1.27
2022-09-28T01:58:05.548Z,1.40
2022-09-28T02:00:32.604Z,1.60
2022-09-28T02:03:04.649Z,1.40
2022-09-28T02:05:33.647Z,1.47
2022-09-28T02:08:10.034Z,1.50
2022-09-28T02:11:03.652Z,1.50
2022-09-28T02:13:33.791Z,1.30
2022-09-28T02:16:06.690Z,1.60
2022-09-28T02:18:33.410Z,1.40
2022-09-28T02:21:03.207Z,1.33
2022-09-28T02:23:29.679Z,1.20
2022-09-28T02:26:04.009Z,1.33
2022-09-28T02:28:30.508Z,1.40
2022-09-28T02:30:57.099Z,1.27
2022-09-28T02:33:26.312Z,1.30
2022-09-28T02:35:52.784Z,1.20
2022-09-28T02:38:19.274Z,1.30
2022-09-28T02:41:21.259Z,1.30
2022-09-28T02:44:03.660Z,1.30
2022-09-28T02:46:49.728Z,1.50
2022-09-28T02:49:35.071Z,1.30
2022-09-28T02:52:15.576Z,1.40
2022-09-28T02:55:10.076Z,1.30
2022-09-28T02:57:41.133Z,1.30
2022-09-28T03:00:18.696Z,1.40
2022-09-28T03:03:05.804Z,1.40
2022-09-28T03:05:41.212Z,1.50
2022-09-28T03:08:17.307Z,1.50
2022-09-28T03:10:51.896Z,1.30
2022-09-28T03:13:18.363Z,1.30
2022-09-28T03:15:48.662Z,1.40
2022-09-28T03:18:15.976Z,1.27
2022-09-28T03:20:42.542Z,1.30
2022-09-28T03:23:25.441Z,1.10
2022-09-28T03:25:52.172Z,1.50
2022-09-28T03:28:18.673Z,1.70
2022-09-28T03:30:45.367Z,1.30
2022-09-28T03:33:11.863Z,1.50
2022-09-28T03:35:38.334Z,1.33
2022-09-28T03:38:04.815Z,1.20
2022-09-28T03:40:31.388Z,1.17
2022-09-28T03:42:59.809Z,1.30
2022-09-28T03:45:26.313Z,1.57
2022-09-28T03:47:52.860Z,1.23
2022-09-28T03:50:19.326Z,1.30
2022-09-28T03:52:45.854Z,1.20
2022-09-28T03:55:12.410Z,1.17
2022-09-28T03:57:38.882Z,1.20
2022-09-28T04:00:05.755Z,1.20
2022-09-28T04:02:32.367Z,1.33
2022-09-28T04:04:58.915Z,1.13
2022-09-28T04:07:29.038Z,1.23
2022-09-28T04:09:57.539Z,1.10
2022-09-28T04:12:24.056Z,1.13
2022-09-28T04:14:50.914Z,1.20
2022-09-28T04:17:17.416Z,1.40
2022-09-28T04:19:43.895Z,1.20
2022-09-28T04:22:10.424Z,1.30
2022-09-28T04:24:36.947Z,1.30
2022-09-28T04:27:21.952Z,1.20
2022-09-28T04:29:48.420Z,1.20
2022-09-28T04:32:14.894Z,1.10
2022-09-28T04:34:44.139Z,1.33
2022-09-28T04:37:11.010Z,1.10
2022-09-28T04:39:37.538Z,1.30
2022-09-28T04:42:04.024Z,1.00
2022-09-28T04:44:30.574Z,1.30
2022-09-28T04:46:58.247Z,1.37
2022-09-28T04:49:27.120Z,1.20
2022-09-28T04:51:53.588Z,1.30
2022-09-28T04:54:20.230Z,1.17
2022-09-28T04:56:46.695Z,1.20
2022-09-28T04:59:13.497Z,1.20
2022-09-28T05:01:40.158Z,1.20
2022-09-28T05:04:06.688Z,1.20
2022-09-28T05:06:33.199Z,1.00
2022-09-28T05:08:59.748Z,1.00
2022-09-28T05:11:26.554Z,1.10
2022-09-28T05:13:53.112Z,1.30
2022-09-28T05:16:20.457Z,1.20
2022-09-28T05:18:47.391Z,1.37
2022-09-28T05:21:14.700Z,1.20
2022-09-28T05:23:43.655Z,1.20
2022-09-28T05:26:10.174Z,1.30
2022-09-28T05:28:36.672Z,1.10
2022-09-28T05:31:03.815Z,1.30
2022-09-28T05:33:31.070Z,1.13
2022-09-28T05:36:01.108Z,1.33
2022-09-28T05:38:28.426Z,1.20
2022-09-28T05:40:55.000Z,1.30
2022-09-28T05:43:21.544Z,1.30
2022-09-28T05:45:52.917Z,1.17
2022-09-28T05:48:21.740Z,1.10
2022-09-28T05:50:52.393Z,1.40
2022-09-28T05:53:18.977Z,1.20
2022-09-28T05:55:45.612Z,1.20
2022-09-28T05:58:12.157Z,1.20
2022-09-28T06:00:38.678Z,1.20
2022-09-28T06:03:10.486Z,1.17
2022-09-28T06:05:37.540Z,1.20
2022-09-28T06:08:05.203Z,1.27
2022-09-28T06:10:31.979Z,1.20
2022-09-28T06:12:58.491Z,1.10
2022-09-28T06:15:26.263Z,1.20
2022-09-28T06:18:19.202Z,1.20
2022-09-28T06:20:45.701Z,1.17
2022-09-28T06:23:12.756Z,1.10
2022-09-28T06:25:39.473Z,1.23
2022-09-28T06:28:15.187Z,1.10
2022-09-28T06:30:42.376Z,1.17
2022-09-28T06:33:16.294Z,1.10
2022-09-28T06:35:42.839Z,1.20
2022-09-28T06:38:09.428Z,1.00
2022-09-28T06:40:36.265Z,1.10
2022-09-28T06:43:20.981Z,1.20
2022-09-28T06:45:51.383Z,1.10
2022-09-28T06:48:17.973Z,1.10
2022-09-28T06:50:44.967Z,1.17
2022-09-28T06:53:13.553Z,1.20
2022-09-28T06:55:46.019Z,1.10
2022-09-28T06:58:13.988Z,1.10
2022-09-28T07:00:40.684Z,1.30
2022-09-28T07:03:17.860Z,1.10
2022-09-28T07:05:48.832Z,1.30
2022-09-28T07:08:15.875Z,1.20
2022-09-28T07:10:43.505Z,1.00
2022-09-28T07:13:25.169Z,1.10
2022-09-28T07:15:57.187Z,1.20
2022-09-28T07:18:24.326Z,1.30
2022-09-28T07:20:54.439Z,1.00
2022-09-28T07:23:21.244Z,0.90
2022-09-28T07:25:48.799Z,1.20
2022-09-28T07:28:16.083Z,1.10
2022-09-28T07:30:44.257Z,1.10
2022-09-28T07:33:12.551Z,1.07
2022-09-28T07:35:39.060Z,1.40
2022-09-28T07:38:06.517Z,1.10
2022-09-28T07:40:52.347Z,1.03
2022-09-28T07:43:21.780Z,1.10
2022-09-28T07:45:50.837Z,1.20
2022-09-28T07:48:18.621Z,1.10
2022-09-28T07:50:50.230Z,1.30
2022-09-28T07:53:16.708Z,1.00
2022-09-28T07:55:43.247Z,1.20
2022-09-28T07:58:09.739Z,1.07
2022-09-28T08:00:36.207Z,1.07
2022-09-28T08:03:02.940Z,1.37
2022-09-28T08:05:31.240Z,1.40
2022-09-28T08:07:59.592Z,1.10
2022-09-28T08:10:26.381Z,1.10
2022-09-28T08:12:59.223Z,1.20
2022-09-28T08:15:29.552Z,1.40
2022-09-28T08:17:57.995Z,1.10
2022-09-28T08:20:51.343Z,1.10
2022-09-28T08:23:18.345Z,1.10
2022-09-28T08:25:52.552Z,1.13
2022-09-28T08:28:19.040Z,1.10
2022-09-28T08:30:45.887Z,0.83
2022-09-28T08:33:17.573Z,1.00
2022-09-28T08:35:44.806Z,1.20
2022-09-28T08:38:11.364Z,1.23
2022-09-28T08:40:44.792Z,1.07
2022-09-28T08:43:41.873Z,1.20
2022-09-28T08:46:08.576Z,1.00
2022-09-28T08:49:06.646Z,0.90
2022-09-28T08:51:42.507Z,1.13
2022-09-28T08:54:25.934Z,1.10
2022-09-28T08:56:59.120Z,1.20
2022-09-28T08:59:29.730Z,1.00
2022-09-28T09:01:58.588Z,1.10
2022-09-28T09:04:25.249Z,1.10
2022-09-28T09:07:00.658Z,1.10
2022-09-28T09:09:55.157Z,1.23
2022-09-28T09:12:21.560Z,1.10
2022-09-28T09:15:00.205Z,1.03
2022-09-28T09:17:36.545Z,1.17
2022-09-28T09:20:19.426Z,0.90
2022-09-28T09:23:10.594Z,1.20
2022-09-28T09:26:26.139Z,1.00
2022-09-28T09:29:20.781Z,1.10
2022-09-28T09:31:53.396Z,1.00
2022-09-28T09:34:32.976Z,1.00
2022-09-28T09:37:30.561Z,1.23
2022-09-28T09:40:11.001Z,1.17
2022-09-28T09:42:40.435Z,0.93
2022-09-28T09:45:16.188Z,1.00
2022-09-28T09:47:50.756Z,1.10
2022-09-28T09:50:52.044Z,0.97
2022-09-28T09:53:38.387Z,1.10
2022-09-28T09:56:15.239Z,1.10
2022-09-28T09:58:46.167Z,0.90
2022-09-28T10:01:13.910Z,1.20
2022-09-28T10:03:42.637Z,1.40
2022-09-28T10:06:12.127Z,1.60
2022-09-28T10:08:44.395Z,1.50
2022-09-28T10:11:28.190Z,1.67
2022-09-28T10:13:55.266Z,1.93
2022-09-28T10:16:21.778Z,2.03
2022-09-28T10:18:49.679Z,1.93
2022-09-28T10:21:18.496Z,1.97
2022-09-28T10:23:45.103Z,1.60
2022-09-28T10:26:25.276Z,1.80
2022-09-28T10:28:59.161Z,1.70
2022-09-28T10:31:39.164Z,1.80
2022-09-28T10:34:06.902Z,1.80
2022-09-28T10:36:38.325Z,1.60
2022-09-28T10:39:06.025Z,1.93
2022-09-28T10:41:32.505Z,1.70
2022-09-28T10:44:08.827Z,1.80
2022-09-28T10:46:35.470Z,1.50
2022-09-28T10:49:12.451Z,1.47
2022-09-28T10:51:49.772Z,1.57
2022-09-28T10:54:20.960Z,1.50
2022-09-28T10:56:48.100Z,1.63
2022-09-28T10:59:29.528Z,1.80
2022-09-28T11:02:01.076Z,1.50
2022-09-28T11:04:29.040Z,1.60
2022-09-28T11:09:38.896Z,1.53
2022-09-28T11:12:06.090Z,1.60
2022-09-28T11:14:32.464Z,1.47
2022-09-28T11:17:20.280Z,1.80
2022-09-28T11:19:46.751Z,1.83
2022-09-28T11:22:25.067Z,1.97
2022-09-28T11:24:51.860Z,1.70
2022-09-28T11:27:27.600Z,1.90
2022-09-28T11:30:03.262Z,1.80
2022-09-28T11:32:31.759Z,1.77
2022-09-28T11:35:00.596Z,1.80
2022-09-28T11:37:40.580Z,2.03
2022-09-28T11:40:16.692Z,3.07
2022-09-28T11:43:21.004Z,3.03
2022-09-28T11:45:57.711Z,2.70
2022-09-28T11:48:27.056Z,3.07
2022-09-28T11:50:56.822Z,3.10
2022-09-28T11:54:01.851Z,3.30
2022-09-28T11:56:38.856Z,3.40
2022-09-28T11:59:14.657Z,3.33
2022-09-28T12:01:48.059Z,3.70
2022-09-28T12:04:25.193Z,3.67
2022-09-28T12:07:09.212Z,3.43
2022-09-28T12:09:53.375Z,4.03
2022-09-28T12:12:32.732Z,3.90
2022-09-28T12:15:05.335Z,4.00
2022-09-28T12:17:38.984Z,5.40
2022-09-28T12:20:20.704Z,5.30
2022-09-28T12:23:00.568Z,4.23
2022-09-28T12:25:28.251Z,5.07
2022-09-28T12:28:03.345Z,4.37
2022-09-28T12:30:33.250Z,4.67
2022-09-28T12:33:12.293Z,4.97
2022-09-28T12:35:47.930Z,4.60
2022-09-28T12:38:36.188Z,4.57
2022-09-28T12:41:42.386Z,5.40
2022-09-28T12:44:25.656Z,5.20
2022-09-28T12:46:55.234Z,5.23
2022-09-28T12:53:20.081Z,4.97
2022-09-28T12:56:04.636Z,4.77
2022-09-28T12:58:50.541Z,4.50
2022-09-28T13:01:32.340Z,4.90
2022-09-28T13:04:35.088Z,4.37
2022-09-28T13:07:19.969Z,4.63
2022-09-28T13:10:16.761Z,4.60
2022-09-28T13:12:53.316Z,4.10
2022-09-28T13:15:27.775Z,4.57
2022-09-28T13:18:02.155Z,4.67
2022-09-28T13:20:50.557Z,3.93
2022-09-28T13:23:24.033Z,4.10
2022-09-28T13:25:57.255Z,4.43
2022-09-28T13:28:27.253Z,4.27
2022-09-28T13:30:54.848Z,4.47
2022-09-28T13:33:47.632Z,4.00
2022-09-28T13:36:29.057Z,4.40
2022-09-28T13:38:59.475Z,4.40
2022-09-28T13:41:32.132Z,4.20
2022-09-28T13:44:08.161Z,4.13
2022-09-28T13:46:49.847Z,4.43
2022-09-28T13:49:24.413Z,3.53
2022-09-28T13:51:51.721Z,4.00
2022-09-28T13:54:27.385Z,4.37
2022-09-28T13:57:11.308Z,4.30
2022-09-28T14:00:15.904Z,4.23
2022-09-28T14:02:45.806Z,4.17
2022-09-28T14:05:21.621Z,3.70
2022-09-28T14:08:09.124Z,4.03
2022-09-28T14:10:51.942Z,4.20
2022-09-28T14:13:43.529Z,4.20
2022-09-28T14:16:20.567Z,4.00
2022-09-28T14:18:53.699Z,4.30
2022-09-28T14:21:40.216Z,3.93
2022-09-28T14:24:09.288Z,3.67
2022-09-28T14:26:41.794Z,4.17
2022-09-28T14:29:28.469Z,3.90
2022-09-28T14:31:56.760Z,3.83
2022-09-28T14:34:32.380Z,3.73
2022-09-28T14:37:37.260Z,3.97
2022-09-28T14:40:45.829Z,3.50
2022-09-28T14:43:47.336Z,3.60
2022-09-28T14:46:19.773Z,3.43
2022-09-28T14:48:50.233Z,2.90
2022-09-28T14:51:33.029Z,2.97
2022-09-28T14:54:10.467Z,3.27
2022-09-28T14:56:52.048Z,3.43
2022-09-28T14:59:19.215Z,3.10
2022-09-28T15:01:55.501Z,3.03
2022-09-28T15:04:23.205Z,3.33
2022-09-28T15:06:50.894Z,2.73
2022-09-28T15:09:33.703Z,3.17
2022-09-28T15:12:03.589Z,3.00
2022-09-28T15:14:33.451Z,3.17
2022-09-28T15:17:03.397Z,3.00
2022-09-28T15:19:41.263Z,3.37
2022-09-28T15:22:17.301Z,2.80
2022-09-28T15:25:02.841Z,3.00
2022-09-28T15:27:36.747Z,2.90
2022-09-28T15:30:27.987Z,2.90
2022-09-28T15:32:56.776Z,3.10
2022-09-28T15:35:26.938Z,3.53
2022-09-28T15:37:54.307Z,3.27
2022-09-28T15:40:37.754Z,3.13
2022-09-28T15:43:19.659Z,3.00
2022-09-28T15:45:46.159Z,2.60
2022-09-28T15:48:30.977Z,3.10
2022-09-28T15:51:10.867Z,2.53
2022-09-28T15:53:42.205Z,2.73
2022-09-28T15:56:10.271Z,2.70
2022-09-28T15:58:37.656Z,3.00
2022-09-28T16:01:27.705Z,2.97
2022-09-28T16:03:54.743Z,2.87
2022-09-28T16:06:21.355Z,2.50
2022-09-28T16:08:50.387Z,2.60
2022-09-28T16:11:31.823Z,3.07
2022-09-28T16:14:08.888Z,2.57
2022-09-28T16:16:40.253Z,2.77
2022-09-28T16:19:20.062Z,2.60
2022-09-28T16:21:47.030Z,2.57
2022-09-28T16:24:31.114Z,2.73
2022-09-28T16:27:01.532Z,2.67
2022-09-28T16:29:41.257Z,2.80
2022-09-28T16:32:26.142Z,2.70
2022-09-28T16:35:11.548Z,2.80
2022-09-28T16:37:40.825Z,2.50
2022-09-28T16:40:08.714Z,2.40
2022-09-28T16:42:35.448Z,3.20
2022-09-28T16:45:05.218Z,2.50
2022-09-28T16:47:34.331Z,2.60
2022-09-28T16:50:02.326Z,2.60
2022-09-28T16:52:47.220Z,2.50
2022-09-28T16:55:40.465Z,2.13
2022-09-28T16:58:04.680Z,2.30
2022-09-28T17:00:31.820Z,2.20
2022-09-28T17:02:58.528Z,2.60
2022-09-28T17:05:25.500Z,2.50
2022-09-28T17:07:59.559Z,2.30
2022-09-28T17:10:50.137Z,2.03
2022-09-28T17:13:31.460Z,2.30
2022-09-28T17:15:58.300Z,1.97
2022-09-28T17:18:24.926Z,2.33
2022-09-28T17:20:51.991Z,2.30
2022-09-28T17:25:49.902Z,2.30
2022-09-28T17:28:24.286Z,2.07
2022-09-28T17:30:50.811Z,2.30
2022-09-28T17:33:17.404Z,2.33
2022-09-28T17:35:43.956Z,2.50
2022-09-28T17:38:14.459Z,2.23
2022-09-28T17:40:41.711Z,2.10
2022-09-28T17:43:08.315Z,2.10
2022-09-28T17:45:39.402Z,1.97
2022-09-28T17:48:09.005Z,1.97
2022-09-28T17:50:35.783Z,2.10
2022-09-28T17:53:11.181Z,2.10
2022-09-28T17:55:38.117Z,2.10
2022-09-28T17:58:21.428Z,1.93
2022-09-28T18:00:48.910Z,2.00
2022-09-28T18:03:19.985Z,1.90
2022-09-28T18:05:48.269Z,2.20
2022-09-28T18:08:17.799Z,1.80
2022-09-28T18:10:46.282Z,2.20
2022-09-28T18:13:13.599Z,2.00
2022-09-28T18:15:40.121Z,1.90
2022-09-28T18:18:09.475Z,1.97
2022-09-28T18:20:36.540Z,1.90
2022-09-28T18:23:03.292Z,2.00
2022-09-28T18:25:30.039Z,1.70
2022-09-28T18:27:57.522Z,1.93
2022-09-28T18:30:24.714Z,1.90
2022-09-28T18:32:51.303Z,1.80
2022-09-28T18:35:22.626Z,2.00
2022-09-28T18:37:49.938Z,2.00
2022-09-28T18:40:16.494Z,2.00
2022-09-28T18:42:43.037Z,1.80
2022-09-28T18:45:13.164Z,2.00
2022-09-28T18:47:39.960Z,2.13
2022-09-28T18:50:07.037Z,2.00
2022-09-28T18:52:36.597Z,2.30
2022-09-28T18:55:04.073Z,1.80
2022-09-28T18:57:33.508Z,2.00
2022-09-28T19:00:00.847Z,1.97
2022-09-28T19:02:27.563Z,2.00
2022-09-28T19:04:54.147Z,1.63
2022-09-28T19:07:21.244Z,2.07
2022-09-28T19:09:47.722Z,2.10
2022-09-28T19:12:14.255Z,1.57
2022-09-28T19:14:40.787Z,2.00
2022-09-28T19:17:07.280Z,2.03
2022-09-28T19:19:33.822Z,2.10
2022-09-28T19:22:00.340Z,1.70
2022-09-28T19:24:26.953Z,1.90
2022-09-28T19:26:53.599Z,1.80
2022-09-28T19:29:20.401Z,2.07
2022-09-28T19:31:46.982Z,1.60
2022-09-28T19:34:14.406Z,1.80
2022-09-28T19:36:41.067Z,1.90
2022-09-28T19:39:07.833Z,1.90
2022-09-28T19:41:43.338Z,2.00
2022-09-28T19:44:27.231Z,1.97
2022-09-28T19:46:54.638Z,1.90
2022-09-28T19:49:22.260Z,2.00
2022-09-28T19:54:38.102Z,1.97
2022-09-28T19:57:08.677Z,1.90
2022-09-28T19:59:36.641Z,2.10
2022-09-28T20:02:03.935Z,1.80
2022-09-28T20:04:30.471Z,1.90
2022-09-28T20:06:56.951Z,1.83
2022-09-28T20:09:23.440Z,1.73
2022-09-28T20:11:51.793Z,1.73
2022-09-28T20:14:23.366Z,1.60
2022-09-28T20:16:52.286Z,1.80
2022-09-28T20:19:21.475Z,1.70
2022-09-28T20:21:48.351Z,1.77
2022-09-28T20:24:17.038Z,1.70
2022-09-28T20:26:44.341Z,1.63
2022-09-28T20:29:10.875Z,1.57
2022-09-28T20:31:37.459Z,1.80
2022-09-28T20:34:04.670Z,2.00
2022-09-28T20:36:33.903Z,1.60
2022-09-28T20:39:03.291Z,1.80
2022-09-28T20:41:36.771Z,1.60
2022-09-28T20:44:14.276Z,1.50
2022-09-28T20:46:40.940Z,1.53
2022-09-28T20:49:07.760Z,1.80
2022-09-28T20:51:34.422Z,1.90
2022-09-28T20:54:00.976Z,1.60
2022-09-28T20:56:29.050Z,1.67
2022-09-28T20:58:55.735Z,1.70
2022-09-28T21:01:23.933Z,1.57
2022-09-28T21:03:51.496Z,1.50
2022-09-28T21:06:18.782Z,1.70
2022-09-28T21:08:45.834Z,1.73
2022-09-28T21:11:13.183Z,1.80
2022-09-28T21:13:43.127Z,1.83
2022-09-28T21:16:10.899Z,1.60
2022-09-28T21:18:38.223Z,1.60
2022-09-28T21:21:15.319Z,1.80
2022-09-28T21:23:44.830Z,1.80
2022-09-28T21:26:24.339Z,1.60
2022-09-28T21:28:57.937Z,1.70
2022-09-28T21:31:28.806Z,1.63
2022-09-28T21:33:56.469Z,1.57
2022-09-28T21:36:22.995Z,1.70
2022-09-28T21:38:49.464Z,1.50
2022-09-28T21:41:16.325Z,1.73
2022-09-28T21:43:42.808Z,1.50
2022-09-28T21:46:09.778Z,1.97
2022-09-28T21:48:36.254Z,1.70
2022-09-28T21:51:07.139Z,1.60
2022-09-28T21:53:35.035Z,1.50
2022-09-28T21:56:01.888Z,1.80
2022-09-28T21:58:30.033Z,1.67
2022-09-28T22:01:03.117Z,1.60
2022-09-28T22:03:30.298Z,1.50
2022-09-28T22:05:56.773Z,1.80
2022-09-28T22:08:23.571Z,1.63
2022-09-28T22:11:03.280Z,1.57
2022-09-28T22:13:30.364Z,1.40
2022-09-28T22:15:58.684Z,1.70
2022-09-28T22:18:26.204Z,1.70
2022-09-28T22:21:06.495Z,1.50
2022-09-28T22:23:33.329Z,1.73
2022-09-28T22:26:05.290Z,1.60
2022-09-28T22:28:31.799Z,1.60
2022-09-28T22:30:58.391Z,1.63
2022-09-28T22:33:24.979Z,1.60
2022-09-28T22:35:51.509Z,1.53
2022-09-28T22:38:18.842Z,1.67
2022-09-28T22:40:54.623Z,1.60
2022-09-28T22:43:25.015Z,1.50
2022-09-28T22:46:01.909Z,1.40
2022-09-28T22:48:28.636Z,1.53
2022-09-28T22:50:55.134Z,1.53
2022-09-28T22:53:21.594Z,1.33
2022-09-28T22:55:48.123Z,1.53
2022-09-28T22:58:14.669Z,1.50
2022-09-28T23:00:41.211Z,1.43
2022-09-28T23:03:07.804Z,1.70
2022-09-28T23:05:34.291Z,1.50
2022-09-28T23:08:00.942Z,1.80
2022-09-28T23:10:27.447Z,1.43
2022-09-28T23:12:54.931Z,1.40
2022-09-28T23:15:22.338Z,1.50
2022-09-28T23:17:52.725Z,1.77
2022-09-28T23:20:22.156Z,1.43
2022-09-28T23:22:48.697Z,1.50
2022-09-28T23:25:16.206Z,1.60
2022-09-28T23:27:46.988Z,1.33
2022-09-28T23:30:14.639Z,1.60
2022-09-28T23:32:41.311Z,1.70
2022-09-28T23:35:07.910Z,1.53
2022-09-28T23:37:34.453Z,1.40
2022-09-28T23:40:02.772Z,1.30
2022-09-28T23:42:29.339Z,1.70
2022-09-28T23:44:55.870Z,1.40
2022-09-28T23:47:22.419Z,1.40
2022-09-28T23:49:48.890Z,1.57
2022-09-28T23:52:15.434Z,1.47
2022-09-28T23:54:42.095Z,1.50
2022-09-28T23:57:08.584Z,1.60
2022-09-28T23:59:35.055Z,1.30
